Time;durP1;ratioP1;P1;durP2;ratioP2;P2;SDS_P1;SDS_P2;PMS_P1;PMS_P2;Temp;Humidity;BMP_temperature;BMP_pressure;BME280_temperature;BME280_humidity;BME280_pressure;Samples;Min_cycle;Max_cycle;Signal;HPM_P1;HPM_P2
2022/03/20 00:00:53;;;;;;;5.40;1.02;;;;;;;;;;5005989;28;20065;-56
2022/03/20 00:03:20;;;;;;;3.33;0.88;;;;;;;;;;5003670;28;20042;-55
2022/03/20 00:05:47;;;;;;;5.45;1.08;;;;;;;;;;4987773;28;20521;-57
2022/03/20 00:08:13;;;;;;;7.80;1.75;;;;;;;;;;5006924;27;20042;-56
2022/03/20 00:10:44;;;;;;;3.15;0.98;;;;;;;;;;5004743;28;20038;-57
2022/03/20 00:13:11;;;;;;;7.93;1.27;;;;;;;;;;5007603;28;20057;-57
2022/03/20 00:15:40;;;;;;;4.78;1.05;;;;;;;;;;4988226;28;20082;-57
2022/03/20 00:18:06;;;;;;;4.47;1.10;;;;;;;;;;5005882;27;20034;-57
2022/03/20 00:20:33;;;;;;;13.30;1.38;;;;;;;;;;5005267;27;20038;-57
2022/03/20 00:23:00;;;;;;;4.75;1.50;;;;;;;;;;5005783;27;20046;-57
2022/03/20 00:25:26;;;;;;;6.07;1.05;;;;;;;;;;5005300;27;20077;-55
2022/03/20 00:27:52;;;;;;;7.45;1.15;;;;;;;;;;5004323;28;20129;-58
2022/03/20 00:30:18;;;;;;;6.63;1.60;;;;;;;;;;5003880;28;20049;-59
2022/03/20 00:32:47;;;;;;;4.85;0.90;;;;;;;;;;5004184;28;20073;-59
2022/03/20 00:35:13;;;;;;;4.00;1.10;;;;;;;;;;5005210;28;20113;-58
2022/03/20 00:37:39;;;;;;;3.42;1.00;;;;;;;;;;5005254;28;20435;-57
2022/03/20 00:40:05;;;;;;;10.00;1.20;;;;;;;;;;5005426;28;20064;-57
2022/03/20 00:42:31;;;;;;;4.20;0.82;;;;;;;;;;5003966;28;20145;-62
2022/03/20 00:44:57;;;;;;;5.65;1.10;;;;;;;;;;5005507;28;20041;-57
2022/03/20 00:47:22;;;;;;;5.50;0.90;;;;;;;;;;5005657;28;20042;-55
2022/03/20 00:49:49;;;;;;;7.43;1.58;;;;;;;;;;5004236;28;20489;-56
2022/03/20 00:52:14;;;;;;;6.25;2.42;;;;;;;;;;5004078;28;20042;-56
2022/03/20 00:54:41;;;;;;;23.63;1.63;;;;;;;;;;5003623;28;20097;-57
2022/03/20 00:57:07;;;;;;;3.65;1.20;;;;;;;;;;5005781;27;20046;-56
2022/03/20 00:59:32;;;;;;;6.63;1.40;;;;;;;;;;5003410;27;20453;-56
2022/03/20 01:01:59;;;;;;;5.18;1.25;;;;;;;;;;5002621;28;20038;-57
2022/03/20 01:04:25;;;;;;;3.97;1.02;;;;;;;;;;5004067;28;20045;-56
2022/03/20 01:06:51;;;;;;;11.77;1.52;;;;;;;;;;5004271;28;20563;-54
2022/03/20 01:09:17;;;;;;;4.03;1.05;;;;;;;;;;5004981;28;20042;-57
2022/03/20 01:11:44;;;;;;;7.03;1.08;;;;;;;;;;5005411;27;20118;-54
2022/03/20 01:14:11;;;;;;;6.32;1.05;;;;;;;;;;5004775;28;20712;-56
2022/03/20 01:16:37;;;;;;;4.60;1.00;;;;;;;;;;5004515;28;20049;-57
2022/03/20 01:19:03;;;;;;;10.43;1.40;;;;;;;;;;4987451;28;20078;-57
2022/03/20 01:21:30;;;;;;;5.07;1.40;;;;;;;;;;5004120;28;20050;-57
2022/03/20 01:23:56;;;;;;;5.72;1.25;;;;;;;;;;5004695;28;20149;-56
2022/03/20 01:26:23;;;;;;;8.05;1.23;;;;;;;;;;5003177;28;20053;-57
2022/03/20 01:28:49;;;;;;;8.40;1.27;;;;;;;;;;5003097;28;20037;-57
2022/03/20 01:31:16;;;;;;;4.00;0.90;;;;;;;;;;5003243;28;20045;-56
2022/03/20 01:33:45;;;;;;;7.78;1.40;;;;;;;;;;5005220;28;20052;-55
2022/03/20 01:36:10;;;;;;;4.75;1.38;;;;;;;;;;5004051;28;20052;-55
2022/03/20 01:38:36;;;;;;;9.05;1.35;;;;;;;;;;5008014;28;20041;-57
2022/03/20 01:41:05;;;;;;;12.90;1.40;;;;;;;;;;5004779;28;20038;-55
2022/03/20 01:43:31;;;;;;;6.18;1.42;;;;;;;;;;5003009;28;20142;-56
2022/03/20 01:45:57;;;;;;;9.35;1.73;;;;;;;;;;5005189;28;20406;-55
2022/03/20 01:48:23;;;;;;;7.90;1.60;;;;;;;;;;4995714;28;20553;-56
2022/03/20 01:50:49;;;;;;;6.88;1.95;;;;;;;;;;5002282;28;20052;-58
2022/03/20 01:53:16;;;;;;;7.32;2.95;;;;;;;;;;5003487;28;20046;-57
2022/03/20 01:55:42;;;;;;;12.57;2.00;;;;;;;;;;4991305;28;20487;-55
2022/03/20 01:58:08;;;;;;;5.40;1.60;;;;;;;;;;4995811;28;20042;-57
2022/03/20 02:00:34;;;;;;;12.15;2.88;;;;;;;;;;5004237;28;20038;-55
2022/03/20 02:03:00;;;;;;;15.60;3.33;;;;;;;;;;5005252;28;20382;-57
2022/03/20 02:05:26;;;;;;;10.68;2.83;;;;;;;;;;5001692;28;20136;-56
2022/03/20 02:07:53;;;;;;;13.60;3.20;;;;;;;;;;5002970;28;20038;-55
2022/03/20 02:10:19;;;;;;;7.45;2.22;;;;;;;;;;5002442;28;20053;-57
2022/03/20 02:12:45;;;;;;;12.02;2.83;;;;;;;;;;5003424;28;20049;-57
2022/03/20 02:15:12;;;;;;;6.88;2.15;;;;;;;;;;5003318;28;20332;-57
2022/03/20 02:17:39;;;;;;;16.77;3.08;;;;;;;;;;4994263;28;20045;-56
2022/03/20 02:20:08;;;;;;;12.63;2.90;;;;;;;;;;5003443;28;20077;-55
2022/03/20 02:22:37;;;;;;;17.52;2.97;;;;;;;;;;5003419;27;20054;-56
2022/03/20 02:25:08;;;;;;;17.02;2.80;;;;;;;;;;5074828;28;20578;-56
2022/03/20 02:27:34;;;;;;;10.80;3.03;;;;;;;;;;5002161;28;20056;-57
2022/03/20 02:30:01;;;;;;;12.63;3.45;;;;;;;;;;5002801;28;20117;-53
2022/03/20 02:32:28;;;;;;;10.38;2.92;;;;;;;;;;5003385;28;20676;-54
2022/03/20 02:34:59;;;;;;;12.32;3.33;;;;;;;;;;5003292;28;20038;-55
2022/03/20 02:37:25;;;;;;;9.85;2.83;;;;;;;;;;5037392;28;20038;-55
2022/03/20 02:39:54;;;;;;;14.45;3.35;;;;;;;;;;5003193;28;20538;-52
2022/03/20 02:42:21;;;;;;;16.33;3.03;;;;;;;;;;5004258;28;20056;-56
2022/03/20 02:44:59;;;;;;;20.30;3.15;;;;;;;;;;5002917;27;20047;-54
2022/03/20 02:47:26;;;;;;;26.90;3.78;;;;;;;;;;5041079;28;20045;-53
2022/03/20 02:49:54;;;;;;;19.38;3.65;;;;;;;;;;5005319;28;20040;-55
2022/03/20 02:52:30;;;;;;;21.65;3.50;;;;;;;;;;5013912;27;20133;-56
2022/03/20 02:54:58;;;;;;;22.33;4.40;;;;;;;;;;5007186;28;20438;-56
2022/03/20 02:57:24;;;;;;;16.25;3.75;;;;;;;;;;5007123;27;20034;-56
2022/03/20 02:59:49;;;;;;;26.75;5.57;;;;;;;;;;5006632;27;20438;-54
2022/03/20 03:02:15;;;;;;;13.75;4.82;;;;;;;;;;5006512;28;20029;-56
2022/03/20 03:04:41;;;;;;;18.70;3.75;;;;;;;;;;5006110;28;20042;-56
2022/03/20 03:07:08;;;;;;;15.23;3.78;;;;;;;;;;5006413;28;20045;-54
2022/03/20 03:12:18;;;;;;;17.23;3.72;;;;;;;;;;5004203;28;20045;-55
2022/03/20 03:17:28;;;;;;;17.83;2.95;;;;;;;;;;5005313;28;20099;-56
2022/03/20 03:19:55;;;;;;;12.02;2.83;;;;;;;;;;5005278;28;20037;-55
2022/03/20 03:22:22;;;;;;;18.55;3.38;;;;;;;;;;5001871;28;20530;-54
2022/03/20 03:24:48;;;;;;;22.35;3.75;;;;;;;;;;5005834;28;20041;-56
2022/03/20 03:27:14;;;;;;;14.80;3.35;;;;;;;;;;5005041;28;20487;-54
2022/03/20 03:29:40;;;;;;;17.92;3.28;;;;;;;;;;5004362;28;20542;-54
2022/03/20 03:32:06;;;;;;;11.55;3.20;;;;;;;;;;5006938;28;20037;-54
2022/03/20 03:37:20;;;;;;;21.00;4.55;;;;;;;;;;5007320;28;20049;-56
2022/03/20 03:39:46;;;;;;;12.75;3.88;;;;;;;;;;5005838;27;20316;-55
2022/03/20 03:42:12;;;;;;;12.27;2.67;;;;;;;;;;5007359;27;20831;-55
2022/03/20 03:44:39;;;;;;;10.45;2.63;;;;;;;;;;5006434;27;20375;-56
2022/03/20 03:47:06;;;;;;;6.63;2.05;;;;;;;;;;5107874;27;20096;-57
2022/03/20 03:49:33;;;;;;;9.15;2.35;;;;;;;;;;5006093;28;20046;-53
2022/03/20 03:52:00;;;;;;;11.00;2.67;;;;;;;;;;5006795;28;20060;-54
2022/03/20 03:54:26;;;;;;;6.82;2.30;;;;;;;;;;5005284;28;20471;-56
2022/03/20 03:56:52;;;;;;;10.55;3.10;;;;;;;;;;5004587;28;20044;-56
2022/03/20 03:59:18;;;;;;;10.30;2.72;;;;;;;;;;5021068;28;20060;-55
2022/03/20 04:01:44;;;;;;;13.10;2.50;;;;;;;;;;5005984;28;20042;-56
2022/03/20 04:04:10;;;;;;;8.48;2.70;;;;;;;;;;5006732;28;20037;-55
2022/03/20 04:06:36;;;;;;;6.35;2.20;;;;;;;;;;5005942;28;20057;-54
2022/03/20 04:09:02;;;;;;;10.82;2.63;;;;;;;;;;5004401;28;20030;-55
2022/03/20 04:11:28;;;;;;;14.68;3.40;;;;;;;;;;5003790;28;20038;-56
2022/03/20 04:13:54;;;;;;;11.85;3.28;;;;;;;;;;5005363;28;20038;-56
2022/03/20 04:16:20;;;;;;;8.40;2.97;;;;;;;;;;5005897;28;20075;-56
2022/03/20 04:18:45;;;;;;;8.95;2.58;;;;;;;;;;5007096;28;20048;-55
2022/03/20 04:21:11;;;;;;;13.10;2.92;;;;;;;;;;5009293;28;20449;-58
2022/03/20 04:23:48;;;;;;;11.95;2.22;;;;;;;;;;5006211;28;20143;-54
2022/03/20 04:26:17;;;;;;;10.52;2.58;;;;;;;;;;5006400;28;20049;-53
2022/03/20 04:28:51;;;;;;;10.45;2.42;;;;;;;;;;5007067;28;20075;-56
2022/03/20 04:31:17;;;;;;;13.23;2.70;;;;;;;;;;5006175;28;20061;-56
2022/03/20 04:33:44;;;;;;;9.73;2.35;;;;;;;;;;5004921;28;20558;-57
2022/03/20 04:36:10;;;;;;;9.35;2.17;;;;;;;;;;5006098;28;20128;-58
2022/03/20 04:38:36;;;;;;;6.30;2.30;;;;;;;;;;5004222;28;20544;-58
2022/03/20 04:41:02;;;;;;;11.00;3.15;;;;;;;;;;5006484;28;20040;-56
2022/03/20 04:43:28;;;;;;;9.73;2.22;;;;;;;;;;5006480;27;20677;-58
2022/03/20 04:45:54;;;;;;;4.78;2.20;;;;;;;;;;5006691;28;20053;-59
2022/03/20 04:59:18;;;;;;;11.57;2.72;;;;;;;;;;5004962;28;20372;-56
2022/03/20 05:01:43;;;;;;;13.25;3.42;;;;;;;;;;5006995;28;20049;-57
2022/03/20 05:04:09;;;;;;;12.38;3.33;;;;;;;;;;5004177;28;20954;-58
2022/03/20 05:06:35;;;;;;;12.75;4.15;;;;;;;;;;5005030;28;20492;-56
2022/03/20 05:14:30;;;;;;;14.20;3.05;;;;;;;;;;5004505;28;20562;-57
2022/03/20 05:16:56;;;;;;;15.15;3.35;;;;;;;;;;5004129;28;20046;-55
2022/03/20 05:19:22;;;;;;;14.07;4.22;;;;;;;;;;5002235;28;20050;-57
2022/03/20 05:21:48;;;;;;;10.75;3.20;;;;;;;;;;5003893;28;20396;-57
2022/03/20 05:24:14;;;;;;;12.68;3.55;;;;;;;;;;5004401;28;20041;-57
2022/03/20 05:26:40;;;;;;;11.57;3.55;;;;;;;;;;5002775;28;20056;-57
2022/03/20 05:29:06;;;;;;;19.42;3.45;;;;;;;;;;5003503;28;20041;-56
2022/03/20 05:31:32;;;;;;;11.13;3.65;;;;;;;;;;5000943;28;20091;-57
2022/03/20 05:33:59;;;;;;;9.65;3.58;;;;;;;;;;5003425;28;21020;-55
2022/03/20 05:36:29;;;;;;;17.17;3.58;;;;;;;;;;5005818;28;20078;-56
2022/03/20 05:38:58;;;;;;;15.57;3.42;;;;;;;;;;5002601;28;20065;-56
2022/03/20 05:44:11;;;;;;;18.08;3.67;;;;;;;;;;5003622;28;20045;-55
2022/03/20 05:46:37;;;;;;;11.88;3.15;;;;;;;;;;5003231;28;20062;-61
2022/03/20 05:49:03;;;;;;;11.85;3.50;;;;;;;;;;5004790;28;20076;-56
2022/03/20 05:51:30;;;;;;;12.30;3.25;;;;;;;;;;5002809;28;20569;-55
2022/03/20 05:53:57;;;;;;;8.30;2.78;;;;;;;;;;5002579;28;20058;-55
2022/03/20 05:59:07;;;;;;;6.80;2.05;;;;;;;;;;5089370;27;20083;-55
2022/03/20 06:01:33;;;;;;;11.55;2.60;;;;;;;;;;5002837;28;20461;-56
2022/03/20 06:04:00;;;;;;;8.75;1.58;;;;;;;;;;5003243;28;20046;-56
2022/03/20 06:06:26;;;;;;;7.63;1.77;;;;;;;;;;5003303;28;20075;-56
2022/03/20 06:08:52;;;;;;;4.30;1.77;;;;;;;;;;5002733;28;20034;-56
2022/03/20 06:11:18;;;;;;;5.15;1.55;;;;;;;;;;5004957;27;20040;-57
2022/03/20 06:13:45;;;;;;;7.68;1.80;;;;;;;;;;5106202;27;20034;-55
2022/03/20 06:16:12;;;;;;;6.40;1.90;;;;;;;;;;5005548;28;20089;-54
2022/03/20 06:18:39;;;;;;;5.90;1.80;;;;;;;;;;5005619;28;20544;-52
2022/03/20 06:21:06;;;;;;;12.60;1.88;;;;;;;;;;5016622;28;20493;-56
2022/03/20 06:23:32;;;;;;;4.60;1.67;;;;;;;;;;5022312;28;20071;-56
2022/03/20 06:25:58;;;;;;;4.88;1.83;;;;;;;;;;5020843;28;20054;-55
2022/03/20 06:28:24;;;;;;;7.63;2.05;;;;;;;;;;5102385;27;20562;-55
2022/03/20 06:30:50;;;;;;;7.03;2.10;;;;;;;;;;5008391;28;20046;-55
2022/03/20 06:33:16;;;;;;;8.90;2.35;;;;;;;;;;5008112;28;20041;-53
2022/03/20 06:35:41;;;;;;;6.50;2.08;;;;;;;;;;5006927;28;20045;-56
2022/03/20 06:38:07;;;;;;;6.97;1.92;;;;;;;;;;5007740;28;20124;-57
2022/03/20 06:40:33;;;;;;;18.35;2.30;;;;;;;;;;5005231;28;20041;-54
2022/03/20 06:42:59;;;;;;;9.05;2.33;;;;;;;;;;5007498;28;20042;-53
2022/03/20 06:45:25;;;;;;;8.07;2.10;;;;;;;;;;5006665;28;20061;-57
2022/03/20 06:47:51;;;;;;;9.90;2.20;;;;;;;;;;5007304;28;20030;-54
2022/03/20 06:50:17;;;;;;;12.88;2.20;;;;;;;;;;5004829;28;20136;-55
2022/03/20 06:52:43;;;;;;;5.53;1.98;;;;;;;;;;5007196;28;20152;-54
2022/03/20 06:55:12;;;;;;;5.55;1.70;;;;;;;;;;5006338;28;20044;-55
2022/03/20 06:57:40;;;;;;;7.65;1.33;;;;;;;;;;5006001;28;21372;-56
2022/03/20 07:00:06;;;;;;;4.03;1.20;;;;;;;;;;5004182;28;20759;-56
2022/03/20 07:02:32;;;;;;;6.25;1.33;;;;;;;;;;5006296;28;20523;-55
2022/03/20 07:04:58;;;;;;;2.45;0.88;;;;;;;;;;5006163;28;20057;-51
2022/03/20 07:07:24;;;;;;;2.55;0.60;;;;;;;;;;5005401;28;20038;-55
2022/03/20 07:09:51;;;;;;;2.75;0.80;;;;;;;;;;5006033;28;20062;-53
2022/03/20 07:12:17;;;;;;;3.65;0.80;;;;;;;;;;5006013;28;20041;-53
2022/03/20 07:14:42;;;;;;;4.47;0.68;;;;;;;;;;5003964;28;20038;-57
2022/03/20 07:17:10;;;;;;;5.70;0.80;;;;;;;;;;5007179;28;20045;-55
2022/03/20 07:19:37;;;;;;;3.67;0.93;;;;;;;;;;5005777;28;20041;-55
2022/03/20 07:22:03;;;;;;;2.40;0.80;;;;;;;;;;5005453;28;20143;-55
2022/03/20 07:24:29;;;;;;;4.90;0.70;;;;;;;;;;5005031;28;20037;-55
2022/03/20 07:29:39;;;;;;;2.83;0.75;;;;;;;;;;5004075;28;20129;-52
2022/03/20 07:32:09;;;;;;;2.72;0.85;;;;;;;;;;5005332;28;20431;-55
2022/03/20 07:34:37;;;;;;;3.83;0.88;;;;;;;;;;5004382;28;20084;-55
2022/03/20 07:37:03;;;;;;;2.75;0.70;;;;;;;;;;5005155;28;20042;-54
2022/03/20 07:39:30;;;;;;;3.45;0.90;;;;;;;;;;5004058;28;20910;-56
2022/03/20 07:41:56;;;;;;;4.53;0.82;;;;;;;;;;5005329;28;20490;-53
2022/03/20 07:44:25;;;;;;;3.97;0.70;;;;;;;;;;5005804;28;20038;-55
2022/03/20 07:46:54;;;;;;;2.20;0.70;;;;;;;;;;5004964;28;20061;-55
2022/03/20 07:49:21;;;;;;;5.45;0.70;;;;;;;;;;5004020;28;20076;-59
2022/03/20 07:51:46;;;;;;;2.53;0.65;;;;;;;;;;5005877;28;20074;-55
2022/03/20 07:54:13;;;;;;;1.42;0.50;;;;;;;;;;5003140;28;20030;-53
2022/03/20 07:56:39;;;;;;;4.63;0.80;;;;;;;;;;5004061;28;20045;-55
2022/03/20 07:59:09;;;;;;;3.00;0.70;;;;;;;;;;5003895;28;20678;-56
2022/03/20 08:01:36;;;;;;;4.35;0.77;;;;;;;;;;5005538;28;20136;-56
2022/03/20 08:04:02;;;;;;;2.28;0.60;;;;;;;;;;5006486;28;20037;-56
2022/03/20 08:06:28;;;;;;;1.75;0.60;;;;;;;;;;5004131;28;20425;-55
2022/03/20 08:08:54;;;;;;;4.53;0.70;;;;;;;;;;5005138;28;20038;-56
2022/03/20 08:11:20;;;;;;;3.20;0.80;;;;;;;;;;5004512;28;20546;-56
2022/03/20 08:13:46;;;;;;;2.10;0.63;;;;;;;;;;5005826;28;20078;-56
2022/03/20 08:16:20;;;;;;;3.42;0.70;;;;;;;;;;5005050;28;20637;-56
2022/03/20 08:18:46;;;;;;;2.28;0.57;;;;;;;;;;5006155;28;20079;-56
2022/03/20 08:21:12;;;;;;;2.30;0.75;;;;;;;;;;5004661;28;21845;-55
2022/03/20 08:23:39;;;;;;;2.35;0.70;;;;;;;;;;5004791;28;20696;-56
2022/03/20 08:26:08;;;;;;;2.15;0.65;;;;;;;;;;5001795;28;20042;-55
2022/03/20 08:28:37;;;;;;;3.83;0.77;;;;;;;;;;5003929;28;20045;-55
2022/03/20 08:31:03;;;;;;;2.17;0.73;;;;;;;;;;5004352;28;20041;-54
2022/03/20 08:33:30;;;;;;;4.03;0.77;;;;;;;;;;5004061;28;20129;-52
2022/03/20 08:35:56;;;;;;;1.90;0.63;;;;;;;;;;5005136;28;20877;-56
2022/03/20 08:38:22;;;;;;;2.30;0.73;;;;;;;;;;5002917;28;20112;-54
2022/03/20 08:40:48;;;;;;;1.58;0.60;;;;;;;;;;5002539;28;20121;-53
2022/03/20 08:43:15;;;;;;;1.73;0.70;;;;;;;;;;5003852;28;20121;-53
2022/03/20 08:45:42;;;;;;;1.98;0.60;;;;;;;;;;5004714;28;20179;-55
2022/03/20 08:48:11;;;;;;;1.83;0.60;;;;;;;;;;5006434;28;20110;-55
2022/03/20 08:50:37;;;;;;;0.82;0.40;;;;;;;;;;5003576;28;20038;-56
2022/03/20 08:53:03;;;;;;;1.75;0.55;;;;;;;;;;5004326;28;20096;-55
2022/03/20 08:55:33;;;;;;;0.68;0.40;;;;;;;;;;5004786;28;20076;-53
2022/03/20 08:57:59;;;;;;;1.17;0.50;;;;;;;;;;5004583;28;20038;-59
2022/03/20 09:00:25;;;;;;;1.52;0.50;;;;;;;;;;5003110;28;20536;-54
2022/03/20 09:02:51;;;;;;;2.10;0.60;;;;;;;;;;5004042;28;20038;-55
2022/03/20 09:05:18;;;;;;;2.63;0.70;;;;;;;;;;5004567;28;20077;-54
2022/03/20 09:07:45;;;;;;;3.90;0.68;;;;;;;;;;5005220;28;20038;-55
2022/03/20 09:10:13;;;;;;;2.03;0.68;;;;;;;;;;5002158;28;20146;-52
2022/03/20 09:12:39;;;;;;;2.15;0.65;;;;;;;;;;5001817;27;20130;-52
2022/03/20 09:15:15;;;;;;;2.10;0.68;;;;;;;;;;5005042;28;20440;-55
2022/03/20 09:20:30;;;;;;;5.72;1.55;;;;;;;;;;5002751;28;20057;-55
2022/03/20 09:22:56;;;;;;;3.13;1.10;;;;;;;;;;5105198;27;20587;-56
2022/03/20 09:25:22;;;;;;;5.35;1.88;;;;;;;;;;5001991;28;20053;-56
2022/03/20 09:27:48;;;;;;;3.90;1.77;;;;;;;;;;5004021;28;20518;-54
2022/03/20 09:30:14;;;;;;;3.88;1.20;;;;;;;;;;5003303;28;20160;-54
2022/03/20 09:32:41;;;;;;;6.28;1.40;;;;;;;;;;5003296;28;20076;-54
2022/03/20 09:35:07;;;;;;;3.95;1.10;;;;;;;;;;5003272;28;20076;-54
2022/03/20 09:37:33;;;;;;;3.08;1.23;;;;;;;;;;5002889;28;20144;-54
2022/03/20 09:39:59;;;;;;;2.83;1.08;;;;;;;;;;5003869;28;20068;-55
2022/03/20 09:42:24;;;;;;;2.90;1.00;;;;;;;;;;5003680;28;21694;-54
2022/03/20 09:44:51;;;;;;;3.03;0.90;;;;;;;;;;5002829;28;20608;-54
2022/03/20 09:47:17;;;;;;;3.20;1.30;;;;;;;;;;5004011;28;20446;-55
2022/03/20 09:49:46;;;;;;;3.35;1.17;;;;;;;;;;5002073;28;20492;-56
2022/03/20 09:52:12;;;;;;;6.18;1.20;;;;;;;;;;5003274;28;20038;-54
2022/03/20 09:54:38;;;;;;;3.75;1.45;;;;;;;;;;5002166;28;20050;-56
2022/03/20 09:57:05;;;;;;;4.03;1.30;;;;;;;;;;5002675;28;20814;-55
2022/03/20 09:59:32;;;;;;;2.95;1.02;;;;;;;;;;5016795;28;20152;-55
2022/03/20 10:02:02;;;;;;;5.05;1.50;;;;;;;;;;5003780;28;20038;-55
2022/03/20 10:04:28;;;;;;;4.05;1.42;;;;;;;;;;5000594;28;20037;-55
2022/03/20 10:06:54;;;;;;;5.25;1.30;;;;;;;;;;5002950;28;20122;-55
2022/03/20 10:09:23;;;;;;;3.20;1.13;;;;;;;;;;5003414;28;20042;-55
2022/03/20 10:11:54;;;;;;;2.65;1.10;;;;;;;;;;5003252;28;20045;-55
2022/03/20 10:14:29;;;;;;;3.22;0.98;;;;;;;;;;5002648;28;20084;-56
2022/03/20 10:17:13;;;;;;;3.00;0.90;;;;;;;;;;5004875;28;20046;-54
2022/03/20 10:19:40;;;;;;;1.70;0.63;;;;;;;;;;5001084;28;20050;-55
2022/03/20 10:22:07;;;;;;;2.50;0.80;;;;;;;;;;5003342;28;20102;-53
2022/03/20 10:24:34;;;;;;;1.88;0.63;;;;;;;;;;5001602;28;21717;-54
2022/03/20 10:27:00;;;;;;;1.52;0.57;;;;;;;;;;5004037;28;20050;-55
2022/03/20 10:29:27;;;;;;;2.55;0.70;;;;;;;;;;5000985;28;20080;-55
2022/03/20 10:31:54;;;;;;;2.10;0.63;;;;;;;;;;5003285;28;20544;-53
2022/03/20 10:34:20;;;;;;;4.55;0.90;;;;;;;;;;5003529;28;20663;-55
2022/03/20 10:36:47;;;;;;;2.50;0.60;;;;;;;;;;5004319;28;20046;-56
2022/03/20 10:39:15;;;;;;;2.38;0.70;;;;;;;;;;5003360;28;20042;-54
2022/03/20 10:41:41;;;;;;;1.75;0.60;;;;;;;;;;5001706;28;20052;-55
2022/03/20 10:44:15;;;;;;;3.97;0.65;;;;;;;;;;5003366;28;20386;-55
2022/03/20 10:46:41;;;;;;;1.55;0.52;;;;;;;;;;5001900;28;20053;-55
2022/03/20 10:49:07;;;;;;;1.25;0.45;;;;;;;;;;5001574;28;20041;-54
2022/03/20 10:51:39;;;;;;;0.85;0.40;;;;;;;;;;5002621;28;20369;-54
2022/03/20 10:54:07;;;;;;;2.13;0.60;;;;;;;;;;5002044;28;20522;-54
2022/03/20 10:56:33;;;;;;;2.45;0.50;;;;;;;;;;5003599;28;20059;-55
2022/03/20 10:59:00;;;;;;;1.80;0.50;;;;;;;;;;5002302;28;20111;-54
2022/03/20 11:01:35;;;;;;;2.72;0.60;;;;;;;;;;5001267;28;20033;-55
2022/03/20 11:04:02;;;;;;;1.27;0.60;;;;;;;;;;5003681;28;20110;-55
2022/03/20 11:06:27;;;;;;;1.13;0.40;;;;;;;;;;5003591;28;20053;-56
2022/03/20 11:08:53;;;;;;;1.65;0.60;;;;;;;;;;5006985;27;20335;-55
2022/03/20 11:11:19;;;;;;;0.98;0.40;;;;;;;;;;5008404;28;20045;-55
2022/03/20 11:13:48;;;;;;;1.08;0.40;;;;;;;;;;5006887;28;20037;-55
2022/03/20 11:16:14;;;;;;;2.08;0.50;;;;;;;;;;5006301;28;20040;-54
2022/03/20 11:18:41;;;;;;;1.10;0.40;;;;;;;;;;5005168;28;20394;-54
2022/03/20 11:21:09;;;;;;;3.38;0.50;;;;;;;;;;5005678;28;20105;-54
2022/03/20 11:23:36;;;;;;;1.27;0.40;;;;;;;;;;5007216;28;20093;-54
2022/03/20 11:26:03;;;;;;;1.65;0.52;;;;;;;;;;5005326;28;20041;-55
2022/03/20 11:28:32;;;;;;;1.75;0.57;;;;;;;;;;5001254;28;20493;-54
2022/03/20 11:30:58;;;;;;;4.30;0.52;;;;;;;;;;5090020;27;20509;-53
2022/03/20 11:33:24;;;;;;;1.13;0.40;;;;;;;;;;5004465;28;20057;-55
2022/03/20 11:35:50;;;;;;;0.90;0.40;;;;;;;;;;5005751;28;20072;-54
2022/03/20 11:38:18;;;;;;;1.95;0.50;;;;;;;;;;5006140;28;20125;-53
2022/03/20 11:41:02;;;;;;;4.75;0.50;;;;;;;;;;5004103;28;20406;-52
2022/03/20 11:43:28;;;;;;;0.68;0.38;;;;;;;;;;5006809;28;20030;-54
2022/03/20 11:46:12;;;;;;;1.38;0.50;;;;;;;;;;5004160;28;20102;-53
2022/03/20 11:48:38;;;;;;;1.08;0.47;;;;;;;;;;5004425;28;20062;-55
2022/03/20 11:51:04;;;;;;;1.30;0.40;;;;;;;;;;5005487;28;20038;-54
2022/03/20 11:53:31;;;;;;;1.85;0.50;;;;;;;;;;5005901;28;20033;-56
2022/03/20 11:55:57;;;;;;;1.20;0.50;;;;;;;;;;5004331;28;20030;-56
2022/03/20 11:58:26;;;;;;;1.23;0.43;;;;;;;;;;5004728;28;20080;-56
2022/03/20 12:01:05;;;;;;;1.55;0.40;;;;;;;;;;5005988;28;20383;-55
2022/03/20 12:03:31;;;;;;;1.70;0.52;;;;;;;;;;5006360;28;20715;-56
2022/03/20 12:06:08;;;;;;;0.65;0.30;;;;;;;;;;5004843;28;20057;-56
2022/03/20 12:08:52;;;;;;;0.93;0.40;;;;;;;;;;5004156;28;20041;-54
2022/03/20 12:11:37;;;;;;;0.57;0.30;;;;;;;;;;5004439;28;20041;-55
2022/03/20 12:14:14;;;;;;;1.80;0.47;;;;;;;;;;4987359;28;20049;-55
2022/03/20 12:16:50;;;;;;;2.00;0.50;;;;;;;;;;5005427;28;20073;-56
2022/03/20 12:19:17;;;;;;;0.30;0.30;;;;;;;;;;5004798;28;20060;-56
2022/03/20 12:21:59;;;;;;;1.35;0.52;;;;;;;;;;5003720;28;20060;-55
2022/03/20 12:24:37;;;;;;;0.70;0.40;;;;;;;;;;5038291;28;20045;-56
2022/03/20 12:27:25;;;;;;;1.27;0.40;;;;;;;;;;5005088;28;20078;-58
2022/03/20 12:30:03;;;;;;;1.92;0.40;;;;;;;;;;5006657;28;20046;-57
2022/03/20 12:32:45;;;;;;;0.43;0.30;;;;;;;;;;5005141;28;20046;-55
2022/03/20 12:35:11;;;;;;;0.70;0.40;;;;;;;;;;5006318;28;20151;-56
2022/03/20 12:37:40;;;;;;;3.75;0.50;;;;;;;;;;5004629;28;20088;-58
2022/03/20 12:40:20;;;;;;;1.00;0.40;;;;;;;;;;5007115;28;20117;-58
2022/03/20 12:42:59;;;;;;;1.27;0.40;;;;;;;;;;5004662;28;20050;-56
2022/03/20 12:45:26;;;;;;;0.57;0.38;;;;;;;;;;5004719;28;20060;-56
2022/03/20 12:48:00;;;;;;;1.20;0.40;;;;;;;;;;5005526;28;20104;-57
2022/03/20 12:50:30;;;;;;;1.00;0.40;;;;;;;;;;5004964;28;20111;-57
2022/03/20 12:53:16;;;;;;;0.52;0.30;;;;;;;;;;5004427;28;20333;-56
2022/03/20 12:55:42;;;;;;;0.60;0.43;;;;;;;;;;4987635;28;20394;-58
2022/03/20 12:58:15;;;;;;;2.53;0.52;;;;;;;;;;5006632;28;20125;-58
2022/03/20 13:00:42;;;;;;;0.93;0.32;;;;;;;;;;5004752;28;20061;-57
2022/03/20 13:03:09;;;;;;;2.17;0.40;;;;;;;;;;5005387;28;20041;-56
2022/03/20 13:05:58;;;;;;;4.18;0.50;;;;;;;;;;5004761;28;20195;-56
2022/03/20 13:08:27;;;;;;;0.80;0.40;;;;;;;;;;5006585;28;20041;-57
2022/03/20 13:10:54;;;;;;;1.80;0.40;;;;;;;;;;5010666;28;20041;-57
2022/03/20 13:13:21;;;;;;;1.13;0.40;;;;;;;;;;5009048;28;20041;-57
2022/03/20 13:15:48;;;;;;;1.13;0.35;;;;;;;;;;5004214;28;20041;-56
2022/03/20 13:18:14;;;;;;;1.30;0.40;;;;;;;;;;5005144;28;20082;-57
2022/03/20 13:20:41;;;;;;;0.30;0.30;;;;;;;;;;5004921;28;20124;-57
2022/03/20 13:23:07;;;;;;;1.13;0.40;;;;;;;;;;5004214;28;20042;-58
2022/03/20 13:25:37;;;;;;;0.88;0.40;;;;;;;;;;5002722;28;20054;-57
2022/03/20 13:28:03;;;;;;;2.08;0.50;;;;;;;;;;5003977;28;20049;-55
2022/03/20 13:30:35;;;;;;;1.05;0.40;;;;;;;;;;5003535;28;20082;-55
2022/03/20 13:33:01;;;;;;;0.30;0.30;;;;;;;;;;5004041;28;20048;-59
2022/03/20 13:35:28;;;;;;;1.38;0.50;;;;;;;;;;5003248;28;20060;-58
2022/03/20 13:37:58;;;;;;;1.17;0.40;;;;;;;;;;5002850;28;20488;-58
2022/03/20 13:40:25;;;;;;;1.20;0.50;;;;;;;;;;5003280;28;20045;-58
2022/03/20 13:42:51;;;;;;;1.05;0.40;;;;;;;;;;5004728;28;20059;-58
2022/03/20 13:45:17;;;;;;;0.43;0.32;;;;;;;;;;5004038;28;20046;-58
2022/03/20 13:47:43;;;;;;;1.27;0.40;;;;;;;;;;5000824;28;20463;-58
2022/03/20 13:50:09;;;;;;;1.67;0.40;;;;;;;;;;5002208;28;20040;-58
2022/03/20 13:52:35;;;;;;;1.48;0.50;;;;;;;;;;4985510;28;20045;-57
2022/03/20 13:55:04;;;;;;;1.35;0.43;;;;;;;;;;5003117;28;20107;-58
2022/03/20 13:57:30;;;;;;;3.55;0.50;;;;;;;;;;5002037;28;20371;-57
2022/03/20 14:00:00;;;;;;;0.90;0.32;;;;;;;;;;5003406;28;20042;-57
2022/03/20 14:02:36;;;;;;;0.75;0.32;;;;;;;;;;5038114;28;20046;-57
2022/03/20 14:05:08;;;;;;;1.67;0.57;;;;;;;;;;5003797;28;20415;-57
2022/03/20 14:07:35;;;;;;;0.73;0.35;;;;;;;;;;5002941;28;20129;-56
2022/03/20 14:10:15;;;;;;;0.85;0.40;;;;;;;;;;5003691;28;20041;-58
2022/03/20 14:12:41;;;;;;;0.75;0.35;;;;;;;;;;4983619;28;20191;-58
2022/03/20 14:15:08;;;;;;;1.42;0.50;;;;;;;;;;5003263;28;20046;-57
2022/03/20 14:17:39;;;;;;;1.55;0.50;;;;;;;;;;5001538;28;20951;-58
2022/03/20 14:20:08;;;;;;;1.50;0.50;;;;;;;;;;5004713;28;20069;-57
2022/03/20 14:22:43;;;;;;;0.32;0.30;;;;;;;;;;5003242;28;20069;-58
2022/03/20 14:25:10;;;;;;;0.35;0.30;;;;;;;;;;5004161;28;20042;-55
2022/03/20 14:27:36;;;;;;;0.73;0.30;;;;;;;;;;5002044;28;20042;-53
2022/03/20 14:41:25;;;;;;;0.38;0.30;;;;;;;;;;5003614;28;20045;-57
2022/03/20 14:44:04;;;;;;;0.75;0.40;;;;;;;;;;5006838;28;20154;-57
2022/03/20 14:46:30;;;;;;;0.68;0.40;;;;;;;;;;5005230;28;20445;-55
2022/03/20 14:48:57;;;;;;;3.13;0.40;;;;;;;;;;5006897;28;20046;-56
2022/03/20 14:51:23;;;;;;;1.50;0.55;;;;;;;;;;5006838;28;20072;-55
2022/03/20 14:53:48;;;;;;;0.88;0.40;;;;;;;;;;5005974;28;20477;-56
2022/03/20 14:56:15;;;;;;;0.55;0.30;;;;;;;;;;5006109;28;20041;-55
2022/03/20 14:58:41;;;;;;;0.95;0.40;;;;;;;;;;5007025;27;20061;-56
2022/03/20 15:01:10;;;;;;;0.68;0.40;;;;;;;;;;5003187;28;20129;-53
2022/03/20 15:03:36;;;;;;;8.38;0.50;;;;;;;;;;5003952;28;20038;-57
2022/03/20 15:06:03;;;;;;;1.13;0.50;;;;;;;;;;5004981;28;20796;-55
2022/03/20 15:11:29;;;;;;;1.33;0.50;;;;;;;;;;5007587;28;20095;-56
2022/03/20 15:13:56;;;;;;;0.98;0.40;;;;;;;;;;5006028;28;20386;-56
2022/03/20 15:16:23;;;;;;;1.60;0.50;;;;;;;;;;5007342;28;20038;-56
2022/03/20 15:18:52;;;;;;;1.48;0.55;;;;;;;;;;5006645;28;20523;-55
2022/03/20 15:21:18;;;;;;;1.75;0.60;;;;;;;;;;5006910;28;20042;-54
2022/03/20 15:23:45;;;;;;;0.90;0.40;;;;;;;;;;5005813;28;20034;-54
2022/03/20 15:26:10;;;;;;;2.08;0.50;;;;;;;;;;5004981;28;20045;-56
2022/03/20 15:28:36;;;;;;;0.60;0.30;;;;;;;;;;4986403;28;21799;-56
2022/03/20 15:31:05;;;;;;;1.55;0.50;;;;;;;;;;4997976;28;20572;-54
2022/03/20 15:33:39;;;;;;;0.93;0.40;;;;;;;;;;5007169;27;20061;-57